Latest METARs, TAFs and NOTAMs for LIPZ


---------------------------------------------------------------------------
	(OBSERVATIONS)
LIPZ 260550Z 02008KT CAVOK 16/13 Q1012 NOSIG=
LIPZ 260520Z 01008KT CAVOK 16/13 Q1012 NOSIG=
LIPZ 260450Z 01008KT CAVOK 15/13 Q1012 NOSIG=
LIPZ 260420Z 36008KT 8000 NSC 15/13 Q1012 NOSIG=
LIPZ 260350Z 36006KT 9000 NSC 15/13 Q1012 NOSIG=
LIPZ 260320Z 01005KT CAVOK 15/13 Q1011 NOSIG=
---------------------------------------------------------------------------
	(FC)
Sorry, FC For LIPZ Not Found
---------------------------------------------------------------------------
	(TERMINAL AREA FORECAST)
LIPZ 260500Z 2606/2712 VRB06KT CAVOK
    TEMPO 2620/2701 RA=
---------------------------------------------------------------------------
	(NOTAMS)


LIPZ A0896/18 CHIOGGIA NDB 'CHI' FREQ 408.00KHZ NOT AVAILABLE
    DUE TO MAINT. REF AIP AD 2 LIPZ 1-8. 08 FEB 14:09 2018 UNTIL
    08 MAY 23:59 2018 ESTIMATED. CREATED: 08 FEB 14:10 2018

LIPZ A1289/18 RWY 04R/22L AND RWY 04L/22R CLSD TO ALL OPS DUE
    TO WIP REF AIP AD 2 LIPZ 2-1. MAR 27-29 APR 04-06 10-12 17-19
    24-26 MAY 02-04 08-10 15-17 22-24 2 9-31 JUN 05-07 12-14
    AND 19-21 2245-0345, 27 MAR 22:45 2018 UNTIL 22 JUN 03:45
    2018. CREATED: 28 FEB 12:33 2018

LIPZ A1668/18 TRIGGER NOTAM-PERM AIP AIRAC AMDT EFFECTIVE DATE
    26 APR 2018 VENEZIA/TESSERA AD - WITHRAWAL OF 'VEN' L - WITHDRAWAL
    OF 'VTS' ILS RWY 04R OUTER MARKER - REVIEW OF STAR AND WITHDRAWAL
    OF LINK ROUTES AND STAR RWY 04 L/R - REVIEW OF INSTRUMENT
    APPROACH PROCEDURE ILS OR LOC Z RWY 04R - WITHDRAWAL OF THE
    FOLLOWING INSTRUMENT APPROACH PROCEDURES: ILS OR LOC X RWY
    04R NDB (L) RWY 04R - REVIEW OF SID - CHANGES OF INFORMATION
    PUBLISHED IN AD2 SECTION, PAGES 1-1 AND FOLLOWING AIRAC IS
    POSTED AND AVBL ON WEBSITE WWW.ENAV.IT. 26 APR 00:00 2018
    UNTIL 09 MAY 23:59 2018. CREATED: 15 MAR 11:48 2018

LIPZ A1793/18 REF AIP GEN 3.5-1 'METEOROLOGICAL SERVICES' ITEM
    3 'METEOROLOGICAL OBSERVATIONS AND REPORTS' PARAGRAPH 3.1.12
    'AIRPORT METEOROLOGICAL OBSERVATION AND FORECASTS/AIRPORT
    AND WIND SHEAR WARNINGS - ENAV SPA' REFERRING TO 'VENEZIA
    TESSERA - LIPZ' IN COLUMN 5 'REPORTS' CHG 'MET REPORT' TO
    READ: 'MET REPORT/SPECIAL' OTHER DATA UNCHANGED. 20 MAR 17:56
    2018 UNTIL PERM. CREATED: 20 MAR 17:56 2018

LIPZ A1993/18 ADVANCED ULTRA LIGHT MACHINES ARE NOT ALLOWED TO
    ENTER ATZ REF AIP AD 2 LIPZ 1-9. 27 MAR 07:31 2018 UNTIL
    13 JUN 23:59 2018 ESTIMATED. CREATED: 27 MAR 07:31 2018

LIPZ A2084/18 REF AIP AD 2 LIPZ 1-9 ITEM 20 'LOCAL TRAFFIC REGULATIONS'
    BOX 3 'SPECIAL RULES FOR TAXIWAY USE' CHANGE TO READ: 1)
    RWY 04L/22R IS USED AS TWY T WHEN RWY 04R/22L IS ACTIVE 2)
    PILOTS MUST USE THE MINIMUM POWER NECESSARY WHEN MANOEUVRING
    ON THE TAXIWAY SYSTEM. THIS IS OF PARTICULAR IMPORTANCE WHEN
    MANOEUVRING IN APRON CUL-DE-SACS, WHERE JET BLAST CAN AFFECT
    ADJACENT STANDS 3) TWY S IS AVAILABLE TO CODE E AIRCRAFT
    WHEN STAND 442 IS FREE OR IF LED BY FOLLOW-ME CAR. 29 MAR
    21:06 2018 UNTIL PERM. CREATED: 29 MAR 21:06 2018

LIPZ A2392/18 REF AIP AD 2 LIPZ 4-1 STANDARD INSTRUMENT ARRIVAL
    PROCEDURE RWY 04 L/R NEW LINK ROUTE 'CHI 1U' IMPLEMENTED
    WITH FLW CHARACTERISTICS: CHI VOR/DME - TRACK 321DEG (RDL321
    CHI VOR) - LAREN MINIMUM ENROUTE ALTITUDE: CHI VOR/DME -
    LAREN, 4000FT. RMK: INSTRUMENT FLIGHT PROCEDURE FLYABLE CONVENTIONAL
    AND RNAV1. 26 APR 00:00 2018 UNTIL PERM. CREATED: 12 APR
    15:58 2018

LIPZ A2416/17 REF AIP AD 2 LIPZ 6-17 AND 6-21 STANDARD INSTRUMENT
    DEPARTURE RWY 22 L/R SID BASOG 6V (ATC DISCRETION) MODIFY
    MINIMUM CROSSING LEVEL AS FLW: RDL/QDR 129/38NM VIC NDB-VOR/DME:
    FL90. 19 APR 06:33 2017 UNTIL PERM. CREATED: 19 APR 06:33
    2017

LIPZ A2427/18 TAXIWAY 'Y' AVAILABLE PRIOR COORDINATION WITH AD
    OPERATOR CONTACT TEL +39 0412606495 REF AIP AD 2 LIPZ 2-1.
    13 APR 14:55 2018 UNTIL 15 MAY 23:59 2018. CREATED: 13 APR
    14:56 2018

LIPZ A2428/18 AIRCRAFT STAND 217 CLOSED DUE TO WIP REF AIP AD
    2 LIPZ 2-13. 13 APR 14:56 2018 UNTIL 28 APR 18:00 2018. CREATED:
    13 APR 14:56 2018

LIPZ A2431/18 IHP (INTERMEDIATE HOLDING POSITION) 'U3' MARKING
    NOT AVBL. IHP 'U4' MARKING INCORRECTLY DEPICTED AS 'U3'.
    ATC WILL NOT INSTRUCT TO HLDG AT THE ABOVE MENTIONED IHP.
    REF AIP AD 2 LIPZ 2-13. 13 APR 15:01 2018 UNTIL 28 APR 18:00
    2018. CREATED: 13 APR 15:01 2018

LIPZ A2502/18 TWY Z CLSD DUE TO TECR. RMK ICAO SIGNALS PROVIDED.
    REF AIP AD 2 LIPZ 2-13. 21 APR 04:00 2018 UNTIL 19 JUL 19:00
    2018. CREATED: 17 APR 10:22 2018

LIPZ A2503/18 TWY A AVBL FOR ACFT UP TO ICAO CODE 'D' INCLUDED
    DUE TO OPERATIONAL REASONS. REF AIP AD 2 LIPZ 2-1. 21 APR
    04:00 2018 UNTIL 19 JUL 19:00 2018. CREATED: 17 APR 10:23
    2018

LIPZ A2507/18 DE-ICING BAY USED AS PARKING AREA FOR GENERAL AVIATION
    ACFT, PUSH-BACK TRACTOR IS COMPULSORY FOR ALL MOVEMENTS.
    REF AIP AD 2 LIPZ 1-13. 21 APR 04:00 2018 UNTIL 19 JUL 19:00
    2018. CREATED: 17 APR 11:07 2018

LIPZ A2536/18 AERODROME CONTROL SERVICE. GROUND MOVEMENT CONTROL
    PROVIDED WO USE OF SMR. REF AIP AD 2 LIPZ 1-16. 26 APR 07:00
    2018 UNTIL 26 APR 10:00 2018. CREATED: 18 APR 11:45 2018

LIPZ A2542/18 RUNWAY 04R/22L AND 04L/22R CLSD TO ALL OPS DUE
    TO WIP REF AIP AD2 LIPZ 2-1. FRI SAT 2230-0350 AND MON 2230-0250,
    20 APR 22:30 2018 UNTIL 29 APR 03:50 2018. CREATED: 18 APR
    12:37 2018

LIPZ A2568/18 STANDARD INSTRUMENT DEPARTURE. FLW RESTRICTIONS
    APPLY DUE TO ACTIVITY ANNOUNCED BY NOTAM W0780/18: - ROKIB
    6S (ATC DISCRETION): MNM XNG LVL OVER PZ483 RAISED TO FL110
    - ROKIB 6X/6J (ATC DISCRETION): MNM XNG LVL OVER PZ484 RAISED
    TO FL110 - ROKIB 5V: MNM XNG LVL OVER PZ467 RAISED TO FL110
    REF AIP AD 2 LIPZ 6. DAILY 1000-SS, 25 APR 10:00 2018 UNTIL
    01 MAY 23:59 2018. CREATED: 19 APR 14:05 2018

LIPZ A2609/18 AIRCRAFT STAND '549' CLOSED DUE TO WIP REF AIP
    AD 2 LIPZ 2-13. 20 APR 15:24 2018 UNTIL 15 MAY 07:00 2018.
    CREATED: 20 APR 15:24 2018

LIPZ A2610/18 TAXIWAY 'L' CLOSED DUE TO WIP REF AIP AD 2 LIPZ
    2-1. 26 APR 03:45 2018 UNTIL 11 MAY 07:00 2018. CREATED:
    20 APR 15:25 2018

LIPZ A2611/18 AIRCRAFT STANDS '442' AND '443' CLOSED DUE TO WIP
    REF AIP AD 2 LIPZ 2-13. 20 APR 15:34 2018 UNTIL 15 MAY 07:00
    2018. CREATED: 20 APR 15:35 2018

LIPZ A2665/18 INSTRUMENT LANDING SYSTEM (ILS) RWY04R UNSERVICEABLE
    REF AIP AD 2 LIPZ 1-9. 27 APR 22:30 2018 UNTIL 28 APR 03:50
    2018. CREATED: 24 APR 09:25 2018

LIPZ A2677/18 AIRCRAFT LANDING ON RWY04R MUST VACATE ON TWY 'G'
    OR 'H' REF AIP AD2 LIPZ 1-13 AND 2-1. 26 APR 03:45 2018 UNTIL
    11 MAY 07:00 2018. CREATED: 24 APR 12:56 2018

LIPZ A2678/18 LOW VISIBILITY PROCEDURES (LVP) SUSPENDED. LDG
    AND TKOF NOT ALLOWED WITH RVR EQUAL OR LESS THAN 550M MEASURED
    ON TDZ, MID OR END. REF AIP AD2 LIPZ 1-13. 26 APR 03:45 2018
    UNTIL 11 MAY 07:00 2018. CREATED: 24 APR 13:20 2018

LIPZ A2692/18 AERODROME AVAILABLE FOR ACFT UP TO ICAO CODE 'E'
    INCLUDED DUE TO WIP REF AIP AD 2 LIPZ 1-1. 24 APR 16:04 2018
    UNTIL 05 MAY 23:59 2018. CREATED: 24 APR 16:04 2018

LIPZ A6354/17 REF AIP AD 2 LIPZ 6-9 STANDARD INSTRUMENT DEPARTURE
    RWY04 L/R (TES VOR/DME) SID BELOV 7V ALONG TR 156DEG MODIFY
    CODE BELOV 6V TO READ BELOV 7V DUE TO A MISPRINTING. 21 SEP
    09:13 2017 UNTIL PERM. CREATED: 21 SEP 09:13 2017

LIPZ A7241/17 - REF AIP AD 2 LIPZ 1-13 ITEM 22 'FLT PROCEDURES'
    BOX 4 'PROCEDURES FOR VFR FLIGHTS', ADD PARAGRAPH 4.9 AS
    FLW: 'LANGUAGE TO BE USED IN AIR-GROUND COMMUNICATION: PILOTS
    WITH LANGUAGE PROFICIENCY IN ENGLISH SHALL USE THE ENGLISH
    LANGUAGE FOR AIR-GROUND COMMUNICATION' - REF AIP AD 2 LIPZ
    1-7 ITEM 17 'ATS AIRSPACE', COLUMN 4 'ATS UNIT CALL SIGN/LANGUAGE
    CHANGE THE INFORMATION RELATED TO LANGUAGE AS FLW: 'EN/IT
    (FOR VFR FLT REFER TO ITEM 22 BOX 4 PARAGRAPH 4.9. 27 OCT
    15:40 2017 UNTIL PERM. CREATED: 27 OCT 15:40 2017

LIPZ A8619/17 REF AIP AD 2 LIPZ 1-6 ITEM 15 'OTHER LIGHTING,
    SECONDARY POWER SUPPLY' BOX 2 'LDI LOCATION AND LIGHTS, ANEMOMETER
    LOCATION AND LIGHTS' CHANGE TO READ: LDI:NIL ANEMOMETERS:
    1) 330M AFTER THR RWY04R, RIGHT SIDE RCL 2) 25M AFTER THR
    RWY04R, RIGHT SIDE RCL 3) 40M BEFORE THR RWY22L, LEFT SIDE
    RCL. 19 DEC 15:51 2017 UNTIL PERM. CREATED: 19 DEC 15:51
    2017

LIPZ F0015/07 [DEFENSE ENERGY SUPPORT CENTER ADVISORY] FUEL AVAILABILITY
    NOT AVAILABLE PHONE AHEAD FOR FUEL AVAILABILITY. 12 JUL 10:20
    2020 UNTIL 01 AUG 25:20 2020

LIPZ M5706/17 REF FLIP 'CENTRAL AND NORTHERN ITALY' AD LIPZ 1-1
    'LANDING CHART' WDI BETWEEN TWY 'W' AND TWY 'L' COMPLETELY
    WITHDRAWN. 07 DEC 16:30 2017 UNTIL PERM. CREATED: 07 DEC
    16:30 2017

---------------------------------------------------------------------------